ISR564 LGAV-LLBG
Flight info
| Callsign | ISR564 |
|---|---|
| Flight time | 1h 26m |
| Altitude | 37000 |
| Route | KEA N132 TUXEM UT514 PEXAN UM601 MADEX UN132 KUPIS UN134 VANZA DCT PIKOG L609 ZUKKO |
| Aircraft | A320/M-SDE2FGIJ1LORVWY/SB1 |
Departure
| Time | 2026-05-05 08:45 |
|---|---|
| Airport | Athens Eleftherios Venizelos International Airport (LGAV) |
Arrival
| Time | 2026-05-05 10:12 |
|---|---|
| Airport | Ben Gurion International Airport (LLBG) |
| Time | Latitude | Longitude | Altitude | Speed | Heading |
|---|---|---|---|---|---|
| 2026-05-05 08:36 | 37.92833 | 23.94001 | 301 ft | 0 kts | 38° |
| 2026-05-05 08:38 | 37.92831 | 23.93998 | 301 ft | 3 kts | 39° |
| 2026-05-05 08:38 | 37.92811 | 23.93977 | 300 ft | 4 kts | 42° |
| 2026-05-05 08:39 | 37.92792 | 23.93953 | 303 ft | 4 kts | 53° |
| 2026-05-05 08:39 | 37.92781 | 23.93925 | 301 ft | 4 kts | 96° |
| 2026-05-05 08:39 | 37.92783 | 23.93913 | 300 ft | 0 kts | 127° |
| 2026-05-05 08:42 | 37.92776 | 23.93925 | 304 ft | 9 kts | 127° |
| 2026-05-05 08:42 | 37.92714 | 23.94029 | 301 ft | 17 kts | 127° |
| 2026-05-05 08:42 | 37.92638 | 23.94152 | 302 ft | 19 kts | 128° |
| 2026-05-05 08:43 | 37.92558 | 23.94289 | 304 ft | 19 kts | 127° |
| 2026-05-05 08:43 | 37.92497 | 23.94391 | 308 ft | 12 kts | 127° |
| 2026-05-05 08:43 | 37.92485 | 23.94452 | 308 ft | 6 kts | 53° |
| 2026-05-05 08:43 | 37.92492 | 23.94459 | 308 ft | 0 kts | 38° |
| 2026-05-05 08:44 | 37.92494 | 23.94461 | 308 ft | 3 kts | 38° |
| 2026-05-05 08:44 | 37.92659 | 23.94618 | 304 ft | 65 kts | 37° |
| 2026-05-05 08:44 | 37.93185 | 23.95117 | 294 ft | 123 kts | 37° |
| 2026-05-05 08:45 | 37.93999 | 23.95891 | 297 ft | 166 kts | 37° |
| 2026-05-05 08:45 | 37.94906 | 23.96763 | 872 ft | 164 kts | 37° |
| 2026-05-05 08:45 | 37.95825 | 23.97659 | 1446 ft | 169 kts | 36° |
| 2026-05-05 08:45 | 37.96763 | 23.98569 | 2084 ft | 170 kts | 35° |
| 2026-05-05 08:46 | 37.97722 | 23.99486 | 2574 ft | 180 kts | 34° |
| 2026-05-05 08:46 | 37.98784 | 24.00497 | 2871 ft | 203 kts | 34° |
| 2026-05-05 08:46 | 37.99975 | 24.01630 | 3246 ft | 223 kts | 34° |
| 2026-05-05 08:46 | 38.01206 | 24.02999 | 3565 ft | 250 kts | 52° |
| 2026-05-05 08:47 | 38.01851 | 24.05085 | 4101 ft | 270 kts | 85° |
| 2026-05-05 08:47 | 38.01456 | 24.07464 | 4957 ft | 279 kts | 116° |
| 2026-05-05 08:47 | 38.00470 | 24.09557 | 5835 ft | 282 kts | 120° |
| 2026-05-05 08:47 | 37.99407 | 24.11664 | 6715 ft | 285 kts | 120° |
| 2026-05-05 08:48 | 37.98349 | 24.13725 | 7541 ft | 287 kts | 120° |
| 2026-05-05 08:48 | 37.97254 | 24.15854 | 8389 ft | 289 kts | 120° |
| 2026-05-05 08:48 | 37.96152 | 24.18003 | 9243 ft | 292 kts | 119° |
| 2026-05-05 08:48 | 37.95048 | 24.20172 | 10073 ft | 294 kts | 119° |
| 2026-05-05 08:49 | 37.93922 | 24.22401 | 10512 ft | 311 kts | 119° |
| 2026-05-05 08:49 | 37.92717 | 24.24801 | 10681 ft | 334 kts | 119° |
| 2026-05-05 08:49 | 37.91426 | 24.27369 | 10811 ft | 357 kts | 120° |
| 2026-05-05 08:49 | 37.90049 | 24.30099 | 10935 ft | 378 kts | 120° |
| 2026-05-05 08:50 | 37.88614 | 24.32933 | 11127 ft | 395 kts | 120° |
| 2026-05-05 08:50 | 37.87115 | 24.35883 | 11614 ft | 402 kts | 120° |
| 2026-05-05 08:50 | 37.85592 | 24.38872 | 12198 ft | 406 kts | 120° |
| 2026-05-05 08:50 | 37.84055 | 24.41897 | 12752 ft | 412 kts | 120° |
| 2026-05-05 08:51 | 37.82495 | 24.44962 | 13342 ft | 417 kts | 120° |
| 2026-05-05 08:51 | 37.80915 | 24.48063 | 13921 ft | 422 kts | 120° |
| 2026-05-05 08:51 | 37.79320 | 24.51199 | 14438 ft | 426 kts | 121° |
| 2026-05-05 08:51 | 37.77707 | 24.54368 | 14940 ft | 431 kts | 121° |
| 2026-05-05 08:52 | 37.76100 | 24.57525 | 15433 ft | 435 kts | 121° |
| 2026-05-05 08:52 | 37.74453 | 24.60753 | 15918 ft | 439 kts | 121° |
| 2026-05-05 08:52 | 37.72787 | 24.64008 | 16396 ft | 443 kts | 121° |
| 2026-05-05 08:52 | 37.71104 | 24.67293 | 16867 ft | 447 kts | 121° |
| 2026-05-05 08:53 | 37.69403 | 24.70603 | 17326 ft | 451 kts | 121° |
| 2026-05-05 08:53 | 37.67684 | 24.73945 | 17784 ft | 455 kts | 121° |
| 2026-05-05 08:53 | 37.65955 | 24.77313 | 18233 ft | 459 kts | 122° |
| 2026-05-05 08:53 | 37.64214 | 24.80709 | 18635 ft | 463 kts | 122° |
| 2026-05-05 08:54 | 37.62484 | 24.84086 | 19037 ft | 466 kts | 122° |
| 2026-05-05 08:54 | 37.60718 | 24.87525 | 19452 ft | 468 kts | 122° |
| 2026-05-05 08:54 | 37.58939 | 24.90976 | 19864 ft | 470 kts | 122° |
| 2026-05-05 08:54 | 37.57152 | 24.94438 | 20267 ft | 473 kts | 122° |
| 2026-05-05 08:55 | 37.55355 | 24.97919 | 20650 ft | 475 kts | 122° |
| 2026-05-05 08:55 | 37.53549 | 25.01414 | 21023 ft | 477 kts | 122° |
| 2026-05-05 08:55 | 37.51734 | 25.04919 | 21382 ft | 478 kts | 123° |
| 2026-05-05 08:55 | 37.49909 | 25.08432 | 21716 ft | 480 kts | 123° |
| 2026-05-05 08:56 | 37.48103 | 25.11909 | 22030 ft | 482 kts | 123° |
| 2026-05-05 08:56 | 37.46264 | 25.15449 | 22335 ft | 484 kts | 123° |
| 2026-05-05 08:56 | 37.44419 | 25.18996 | 22650 ft | 486 kts | 123° |
| 2026-05-05 08:56 | 37.42567 | 25.22558 | 22952 ft | 487 kts | 123° |
| 2026-05-05 08:57 | 37.40708 | 25.26131 | 23307 ft | 488 kts | 123° |
| 2026-05-05 08:57 | 37.38850 | 25.29697 | 23749 ft | 487 kts | 123° |
| 2026-05-05 08:57 | 37.36995 | 25.33252 | 24120 ft | 486 kts | 123° |
| 2026-05-05 08:57 | 37.35140 | 25.36810 | 24472 ft | 486 kts | 123° |
| 2026-05-05 08:58 | 37.33313 | 25.40315 | 24823 ft | 486 kts | 123° |
| 2026-05-05 08:58 | 37.31456 | 25.43870 | 25183 ft | 486 kts | 123° |
| 2026-05-05 08:58 | 37.29596 | 25.47418 | 25550 ft | 487 kts | 123° |
| 2026-05-05 08:58 | 37.27730 | 25.50963 | 25916 ft | 487 kts | 123° |
| 2026-05-05 08:59 | 37.25862 | 25.54511 | 26293 ft | 487 kts | 122° |
| 2026-05-05 08:59 | 37.23994 | 25.58060 | 26677 ft | 487 kts | 122° |
| 2026-05-05 08:59 | 37.22127 | 25.61610 | 27064 ft | 487 kts | 122° |
| 2026-05-05 08:59 | 37.20259 | 25.65159 | 27482 ft | 487 kts | 123° |
| 2026-05-05 09:00 | 37.18420 | 25.68651 | 27957 ft | 485 kts | 123° |
| 2026-05-05 09:00 | 37.16564 | 25.72174 | 28421 ft | 484 kts | 123° |
| 2026-05-05 09:00 | 37.14706 | 25.75691 | 28853 ft | 484 kts | 123° |
| 2026-05-05 09:00 | 37.12846 | 25.79204 | 29284 ft | 483 kts | 123° |
| 2026-05-05 09:01 | 37.10985 | 25.82713 | 29722 ft | 483 kts | 123° |
| 2026-05-05 09:01 | 37.09124 | 25.86213 | 30174 ft | 483 kts | 123° |
| 2026-05-05 09:01 | 37.07262 | 25.89713 | 30522 ft | 483 kts | 122° |
| 2026-05-05 09:01 | 37.05401 | 25.93215 | 30867 ft | 483 kts | 122° |
| 2026-05-05 09:02 | 37.03562 | 25.96673 | 31258 ft | 482 kts | 123° |
| 2026-05-05 09:02 | 37.01709 | 26.00155 | 31742 ft | 480 kts | 123° |
| 2026-05-05 09:02 | 36.99861 | 26.03629 | 32148 ft | 479 kts | 122° |
| 2026-05-05 09:02 | 36.98014 | 26.07098 | 32508 ft | 479 kts | 122° |
| 2026-05-05 09:03 | 36.96163 | 26.10566 | 32864 ft | 480 kts | 122° |
| 2026-05-05 09:03 | 36.94308 | 26.14039 | 33221 ft | 480 kts | 122° |
| 2026-05-05 09:03 | 36.92452 | 26.17510 | 33584 ft | 481 kts | 122° |
| 2026-05-05 09:03 | 36.90589 | 26.20981 | 33946 ft | 481 kts | 122° |
| 2026-05-05 09:04 | 36.88720 | 26.24455 | 34271 ft | 482 kts | 122° |
| 2026-05-05 09:04 | 36.86878 | 26.27882 | 34590 ft | 481 kts | 122° |
| 2026-05-05 09:04 | 36.85016 | 26.31351 | 34917 ft | 481 kts | 122° |
| 2026-05-05 09:04 | 36.83156 | 26.34816 | 35217 ft | 481 kts | 122° |
| 2026-05-05 09:05 | 36.81289 | 26.38282 | 35501 ft | 481 kts | 122° |
| 2026-05-05 09:05 | 36.79517 | 26.41567 | 35765 ft | 481 kts | 122° |
| 2026-05-05 09:05 | 36.77636 | 26.45048 | 36040 ft | 481 kts | 122° |
| 2026-05-05 09:05 | 36.75768 | 26.48505 | 36306 ft | 481 kts | 122° |
| 2026-05-05 09:06 | 36.73897 | 26.51969 | 36561 ft | 481 kts | 123° |
| 2026-05-05 09:06 | 36.72026 | 26.55427 | 36817 ft | 481 kts | 123° |
| 2026-05-05 09:06 | 36.70153 | 26.58887 | 37040 ft | 482 kts | 123° |
| 2026-05-05 09:07 | 36.66364 | 26.65878 | 37085 ft | 492 kts | 123° |
| 2026-05-05 09:07 | 36.62516 | 26.72960 | 37079 ft | 500 kts | 123° |
| 2026-05-05 09:08 | 36.58600 | 26.80143 | 37073 ft | 502 kts | 123° |
| 2026-05-05 09:08 | 36.54675 | 26.87326 | 37086 ft | 502 kts | 124° |
| 2026-05-05 09:09 | 36.50752 | 26.94487 | 37083 ft | 501 kts | 124° |
| 2026-05-05 09:09 | 36.46848 | 27.01591 | 37078 ft | 501 kts | 124° |
| 2026-05-05 09:10 | 36.42920 | 27.08752 | 37088 ft | 502 kts | 123° |
| 2026-05-05 09:10 | 36.38990 | 27.15911 | 37080 ft | 502 kts | 124° |
| 2026-05-05 09:11 | 36.35049 | 27.23060 | 37091 ft | 502 kts | 124° |
| 2026-05-05 09:11 | 36.31130 | 27.30147 | 37092 ft | 501 kts | 124° |
| 2026-05-05 09:12 | 36.27175 | 27.37265 | 37066 ft | 502 kts | 124° |
| 2026-05-05 09:12 | 36.23217 | 27.44389 | 37069 ft | 502 kts | 124° |
| 2026-05-05 09:13 | 36.19258 | 27.51519 | 37077 ft | 502 kts | 124° |
| 2026-05-05 09:13 | 36.15320 | 27.58590 | 37075 ft | 502 kts | 124° |
| 2026-05-05 09:14 | 36.11342 | 27.65700 | 37071 ft | 502 kts | 124° |
| 2026-05-05 09:14 | 36.07362 | 27.72797 | 37073 ft | 502 kts | 124° |
| 2026-05-05 09:15 | 36.03378 | 27.79895 | 37068 ft | 502 kts | 124° |
| 2026-05-05 09:15 | 35.99423 | 27.86939 | 37064 ft | 502 kts | 124° |
| 2026-05-05 09:16 | 35.95438 | 27.94025 | 37066 ft | 502 kts | 124° |
| 2026-05-05 09:16 | 35.91444 | 28.01099 | 37066 ft | 502 kts | 125° |
| 2026-05-05 09:17 | 35.87441 | 28.08165 | 37056 ft | 503 kts | 125° |
| 2026-05-05 09:17 | 35.83461 | 28.15184 | 37056 ft | 503 kts | 125° |
| 2026-05-05 09:18 | 35.79450 | 28.22250 | 37060 ft | 503 kts | 125° |
| 2026-05-05 09:18 | 35.75432 | 28.29305 | 37057 ft | 503 kts | 125° |
| 2026-05-05 09:19 | 35.71412 | 28.36358 | 37059 ft | 503 kts | 125° |
| 2026-05-05 09:19 | 35.67412 | 28.43356 | 37061 ft | 503 kts | 125° |
| 2026-05-05 09:20 | 35.63380 | 28.50394 | 37058 ft | 503 kts | 125° |
| 2026-05-05 09:20 | 35.59346 | 28.57424 | 37055 ft | 503 kts | 125° |
| 2026-05-05 09:21 | 35.55314 | 28.64451 | 37053 ft | 503 kts | 126° |
| 2026-05-05 09:21 | 35.51296 | 28.71418 | 37056 ft | 503 kts | 126° |
| 2026-05-05 09:22 | 35.47241 | 28.78431 | 37040 ft | 504 kts | 126° |
| 2026-05-05 09:22 | 35.43190 | 28.85448 | 37043 ft | 504 kts | 126° |
| 2026-05-05 09:23 | 35.39154 | 28.92418 | 37050 ft | 505 kts | 126° |
| 2026-05-05 09:23 | 35.35147 | 28.99315 | 37061 ft | 505 kts | 126° |
| 2026-05-05 09:24 | 35.31093 | 29.06277 | 37057 ft | 506 kts | 126° |
| 2026-05-05 09:24 | 35.27008 | 29.13284 | 37054 ft | 506 kts | 126° |
| 2026-05-05 09:25 | 35.22918 | 29.20284 | 37056 ft | 506 kts | 126° |
| 2026-05-05 09:25 | 35.18821 | 29.27282 | 37053 ft | 506 kts | 126° |
| 2026-05-05 09:26 | 35.14745 | 29.34231 | 37049 ft | 506 kts | 126° |
| 2026-05-05 09:26 | 35.10640 | 29.41224 | 37054 ft | 507 kts | 126° |
| 2026-05-05 09:27 | 35.06527 | 29.48215 | 37044 ft | 507 kts | 127° |
| 2026-05-05 09:27 | 35.02401 | 29.55199 | 37047 ft | 507 kts | 127° |
| 2026-05-05 09:28 | 34.98289 | 29.62137 | 37045 ft | 508 kts | 127° |
| 2026-05-05 09:28 | 34.94149 | 29.69118 | 37048 ft | 508 kts | 127° |
| 2026-05-05 09:29 | 34.90011 | 29.76114 | 37046 ft | 509 kts | 127° |
| 2026-05-05 09:29 | 34.85865 | 29.83098 | 37056 ft | 509 kts | 127° |
| 2026-05-05 09:30 | 34.81734 | 29.90029 | 37053 ft | 509 kts | 127° |
| 2026-05-05 09:30 | 34.77572 | 29.97010 | 37052 ft | 510 kts | 127° |
| 2026-05-05 09:31 | 34.73494 | 30.04067 | 37053 ft | 510 kts | 124° |
| 2026-05-05 09:31 | 34.69784 | 30.11423 | 37061 ft | 511 kts | 121° |
| 2026-05-05 09:32 | 34.66191 | 30.18869 | 37048 ft | 511 kts | 121° |
| 2026-05-05 09:32 | 34.62527 | 30.26199 | 37034 ft | 511 kts | 123° |
| 2026-05-05 09:33 | 34.58751 | 30.33513 | 37039 ft | 512 kts | 123° |
| 2026-05-05 09:33 | 34.54963 | 30.40827 | 37054 ft | 512 kts | 123° |
| 2026-05-05 09:34 | 34.51190 | 30.48155 | 37047 ft | 512 kts | 123° |
| 2026-05-05 09:34 | 34.47435 | 30.55497 | 37048 ft | 513 kts | 123° |
| 2026-05-05 09:35 | 34.43692 | 30.62787 | 37049 ft | 513 kts | 123° |
| 2026-05-05 09:35 | 34.38011 | 30.73763 | 37048 ft | 513 kts | 123° |
| 2026-05-05 09:36 | 34.34215 | 30.81076 | 37046 ft | 513 kts | 123° |
| 2026-05-05 09:36 | 34.30447 | 30.88338 | 37046 ft | 513 kts | 123° |
| 2026-05-05 09:37 | 34.26653 | 30.95648 | 37052 ft | 513 kts | 123° |
| 2026-05-05 09:37 | 34.22849 | 31.02950 | 37049 ft | 513 kts | 123° |
| 2026-05-05 09:38 | 34.19040 | 31.10247 | 37048 ft | 514 kts | 123° |
| 2026-05-05 09:38 | 34.15223 | 31.17543 | 37048 ft | 514 kts | 124° |
| 2026-05-05 09:39 | 34.11422 | 31.24778 | 37052 ft | 514 kts | 124° |
| 2026-05-05 09:39 | 34.07600 | 31.32065 | 37049 ft | 514 kts | 124° |
| 2026-05-05 09:40 | 34.03771 | 31.39350 | 37049 ft | 514 kts | 124° |
| 2026-05-05 09:40 | 33.99934 | 31.46626 | 37050 ft | 514 kts | 124° |
| 2026-05-05 09:41 | 33.96084 | 31.53890 | 37051 ft | 514 kts | 124° |
| 2026-05-05 09:41 | 33.92257 | 31.61105 | 37047 ft | 515 kts | 124° |
| 2026-05-05 09:42 | 33.88412 | 31.68373 | 37046 ft | 515 kts | 124° |
| 2026-05-05 09:42 | 33.84556 | 31.75635 | 37046 ft | 515 kts | 124° |
| 2026-05-05 09:43 | 33.80694 | 31.82890 | 37051 ft | 515 kts | 125° |
| 2026-05-05 09:43 | 33.76845 | 31.90089 | 37046 ft | 515 kts | 125° |
| 2026-05-05 09:44 | 33.72971 | 31.97337 | 37043 ft | 516 kts | 125° |
| 2026-05-05 09:44 | 33.69091 | 32.04585 | 37011 ft | 516 kts | 125° |
| 2026-05-05 09:45 | 33.65196 | 32.11816 | 37033 ft | 516 kts | 126° |
| 2026-05-05 09:45 | 33.61322 | 32.19003 | 37040 ft | 516 kts | 125° |
| 2026-05-05 09:46 | 33.57427 | 32.26237 | 37044 ft | 517 kts | 125° |
| 2026-05-05 09:46 | 33.53524 | 32.33472 | 37043 ft | 517 kts | 126° |
| 2026-05-05 09:47 | 33.50277 | 32.39477 | 37046 ft | 517 kts | 126° |
| 2026-05-05 09:47 | 33.46360 | 32.46696 | 37046 ft | 517 kts | 126° |
| 2026-05-05 09:48 | 33.41803 | 32.55080 | 37044 ft | 517 kts | 126° |
| 2026-05-05 09:48 | 33.37879 | 32.62290 | 37036 ft | 517 kts | 126° |
| 2026-05-05 09:49 | 33.34614 | 32.68282 | 37043 ft | 517 kts | 126° |
| 2026-05-05 09:49 | 33.30677 | 32.75479 | 37050 ft | 517 kts | 126° |
| 2026-05-05 09:50 | 33.26099 | 32.83834 | 37052 ft | 517 kts | 126° |
| 2026-05-05 09:50 | 33.22797 | 32.89854 | 37052 ft | 517 kts | 127° |
| 2026-05-05 09:51 | 33.18880 | 32.96991 | 37029 ft | 517 kts | 127° |
| 2026-05-05 09:51 | 33.14919 | 33.04164 | 37042 ft | 517 kts | 127° |
| 2026-05-05 09:52 | 33.10955 | 33.11333 | 37045 ft | 518 kts | 127° |
| 2026-05-05 09:52 | 33.06994 | 33.18501 | 37048 ft | 518 kts | 127° |
| 2026-05-05 09:53 | 33.03097 | 33.25553 | 37028 ft | 508 kts | 127° |
| 2026-05-05 09:53 | 32.99213 | 33.32563 | 37027 ft | 506 kts | 127° |
| 2026-05-05 09:54 | 32.95330 | 33.39552 | 37027 ft | 506 kts | 128° |
| 2026-05-05 09:54 | 32.91437 | 33.46531 | 36989 ft | 505 kts | 128° |
| 2026-05-05 09:55 | 32.89497 | 33.50011 | 36511 ft | 503 kts | 127° |
| 2026-05-05 09:55 | 32.87597 | 33.53414 | 36070 ft | 499 kts | 127° |
| 2026-05-05 09:55 | 32.85683 | 33.56834 | 35655 ft | 494 kts | 127° |
| 2026-05-05 09:55 | 32.83785 | 33.60223 | 35249 ft | 490 kts | 127° |
| 2026-05-05 09:56 | 32.81750 | 33.63425 | 34855 ft | 480 kts | 137° |
| 2026-05-05 09:56 | 32.79465 | 33.66283 | 34464 ft | 475 kts | 138° |
| 2026-05-05 09:56 | 32.77185 | 33.69102 | 34066 ft | 471 kts | 139° |
| 2026-05-05 09:56 | 32.74919 | 33.71893 | 33582 ft | 467 kts | 139° |
| 2026-05-05 09:57 | 32.72666 | 33.74663 | 33077 ft | 465 kts | 139° |
| 2026-05-05 09:57 | 32.70460 | 33.77372 | 32618 ft | 461 kts | 139° |
| 2026-05-05 09:57 | 32.68238 | 33.80103 | 32177 ft | 458 kts | 139° |
| 2026-05-05 09:57 | 32.66036 | 33.82813 | 31749 ft | 454 kts | 138° |
| 2026-05-05 09:58 | 32.63853 | 33.85496 | 31332 ft | 450 kts | 138° |
| 2026-05-05 09:58 | 32.61683 | 33.88161 | 30922 ft | 447 kts | 138° |
| 2026-05-05 09:58 | 32.59532 | 33.90801 | 30530 ft | 444 kts | 137° |
| 2026-05-05 09:58 | 32.57392 | 33.93421 | 30144 ft | 440 kts | 137° |
| 2026-05-05 09:59 | 32.55270 | 33.96021 | 29705 ft | 437 kts | 137° |
| 2026-05-05 09:59 | 32.53202 | 33.98581 | 29289 ft | 434 kts | 137° |
| 2026-05-05 09:59 | 32.51127 | 34.01172 | 28869 ft | 432 kts | 137° |
| 2026-05-05 09:59 | 32.49073 | 34.03749 | 28459 ft | 429 kts | 137° |
| 2026-05-05 10:00 | 32.47028 | 34.06316 | 28053 ft | 427 kts | 137° |
| 2026-05-05 10:00 | 32.44991 | 34.08868 | 27589 ft | 427 kts | 136° |
| 2026-05-05 10:00 | 32.43208 | 34.11740 | 26773 ft | 440 kts | 119° |
| 2026-05-05 10:00 | 32.42152 | 34.15168 | 25997 ft | 448 kts | 102° |
| 2026-05-05 10:01 | 32.41496 | 34.18796 | 25243 ft | 454 kts | 101° |
| 2026-05-05 10:01 | 32.40862 | 34.22398 | 24517 ft | 458 kts | 101° |
| 2026-05-05 10:01 | 32.40213 | 34.26099 | 23796 ft | 461 kts | 101° |
| 2026-05-05 10:01 | 32.39562 | 34.29787 | 22990 ft | 463 kts | 101° |
| 2026-05-05 10:02 | 32.38894 | 34.33521 | 22169 ft | 464 kts | 101° |
| 2026-05-05 10:02 | 32.38234 | 34.37181 | 21464 ft | 453 kts | 102° |
| 2026-05-05 10:02 | 32.37576 | 34.40793 | 20542 ft | 446 kts | 102° |
| 2026-05-05 10:02 | 32.36926 | 34.44354 | 19643 ft | 440 kts | 102° |
| 2026-05-05 10:03 | 32.36284 | 34.47868 | 18772 ft | 434 kts | 102° |
| 2026-05-05 10:03 | 32.35646 | 34.51331 | 17852 ft | 428 kts | 104° |
| 2026-05-05 10:03 | 32.34659 | 34.54605 | 16896 ft | 419 kts | 114° |
| 2026-05-05 10:03 | 32.33527 | 34.57752 | 15962 ft | 413 kts | 115° |
| 2026-05-05 10:04 | 32.32404 | 34.60845 | 15056 ft | 406 kts | 115° |
| 2026-05-05 10:04 | 32.31295 | 34.63887 | 14177 ft | 400 kts | 115° |
| 2026-05-05 10:04 | 32.30201 | 34.66881 | 13241 ft | 394 kts | 115° |
| 2026-05-05 10:04 | 32.29139 | 34.69789 | 12299 ft | 387 kts | 115° |
| 2026-05-05 10:05 | 32.28084 | 34.72680 | 11374 ft | 380 kts | 115° |
| 2026-05-05 10:05 | 32.27047 | 34.75524 | 10459 ft | 373 kts | 115° |
| 2026-05-05 10:05 | 32.26029 | 34.78313 | 9535 ft | 366 kts | 115° |
| 2026-05-05 10:05 | 32.25124 | 34.81095 | 8564 ft | 360 kts | 109° |
| 2026-05-05 10:06 | 32.24394 | 34.83892 | 7619 ft | 353 kts | 108° |
| 2026-05-05 10:06 | 32.23684 | 34.86645 | 6701 ft | 348 kts | 109° |
| 2026-05-05 10:06 | 32.22989 | 34.89337 | 5977 ft | 337 kts | 109° |
| 2026-05-05 10:06 | 32.22320 | 34.91927 | 5453 ft | 322 kts | 109° |
| 2026-05-05 10:07 | 32.21684 | 34.94382 | 4772 ft | 316 kts | 109° |
| 2026-05-05 10:07 | 32.20976 | 34.96790 | 4251 ft | 302 kts | 121° |
| 2026-05-05 10:07 | 32.19650 | 34.98529 | 3897 ft | 275 kts | 153° |
| 2026-05-05 10:07 | 32.17938 | 34.99260 | 3586 ft | 252 kts | 178° |
| 2026-05-05 10:08 | 32.16267 | 34.99170 | 3332 ft | 231 kts | 200° |
| 2026-05-05 10:08 | 32.14849 | 34.98464 | 3057 ft | 215 kts | 213° |
| 2026-05-05 10:08 | 32.13568 | 34.97634 | 2768 ft | 205 kts | 215° |
| 2026-05-05 10:08 | 32.12336 | 34.96834 | 2508 ft | 200 kts | 214° |
| 2026-05-05 10:09 | 32.11135 | 34.96055 | 2223 ft | 191 kts | 213° |
| 2026-05-05 10:09 | 32.09995 | 34.95318 | 2005 ft | 179 kts | 214° |
| 2026-05-05 10:09 | 32.08953 | 34.94645 | 1757 ft | 163 kts | 213° |
| 2026-05-05 10:09 | 32.08032 | 34.94050 | 1569 ft | 144 kts | 213° |
| 2026-05-05 10:10 | 32.07188 | 34.93504 | 1366 ft | 134 kts | 215° |
| 2026-05-05 10:10 | 32.06392 | 34.92992 | 1183 ft | 126 kts | 215° |
| 2026-05-05 10:10 | 32.05615 | 34.92503 | 980 ft | 127 kts | 216° |
| 2026-05-05 10:10 | 32.04827 | 34.91988 | 832 ft | 130 kts | 218° |
| 2026-05-05 10:11 | 32.04034 | 34.91459 | 643 ft | 134 kts | 214° |
| 2026-05-05 10:11 | 32.03218 | 34.90958 | 468 ft | 129 kts | 218° |
| 2026-05-05 10:11 | 32.02448 | 34.90435 | 314 ft | 129 kts | 216° |
| 2026-05-05 10:11 | 32.01654 | 34.89927 | 146 ft | 135 kts | 214° |
| 2026-05-05 10:12 | 32.00923 | 34.89445 | 122 ft | 98 kts | 209° |
| 2026-05-05 10:12 | 32.00478 | 34.89158 | 118 ft | 45 kts | 209° |
| 2026-05-05 10:12 | 32.00296 | 34.89039 | 119 ft | 23 kts | 213° |
| 2026-05-05 10:12 | 32.00192 | 34.88926 | 117 ft | 21 kts | 228° |
| 2026-05-05 10:13 | 32.00130 | 34.88813 | 119 ft | 10 kts | 239° |
| 2026-05-05 10:13 | 32.00107 | 34.88771 | 118 ft | 9 kts | 238° |
| 2026-05-05 10:13 | 32.00091 | 34.88653 | 120 ft | 18 kts | 293° |
| 2026-05-05 10:13 | 32.00167 | 34.88504 | 117 ft | 25 kts | 302° |
| 2026-05-05 10:14 | 32.00266 | 34.88312 | 118 ft | 30 kts | 301° |
| 2026-05-05 10:14 | 32.00383 | 34.88090 | 120 ft | 32 kts | 302° |
| 2026-05-05 10:14 | 32.00499 | 34.87866 | 117 ft | 32 kts | 301° |
| 2026-05-05 10:14 | 32.00613 | 34.87648 | 118 ft | 29 kts | 302° |
| 2026-05-05 10:15 | 32.00719 | 34.87443 | 116 ft | 27 kts | 301° |
| 2026-05-05 10:15 | 32.00757 | 34.87324 | 120 ft | 10 kts | 258° |
| 2026-05-05 10:15 | 32.00697 | 34.87300 | 120 ft | 11 kts | 183° |
| 2026-05-05 10:15 | 32.00625 | 34.87291 | 120 ft | 8 kts | 199° |
| 2026-05-05 10:16 | 32.00594 | 34.87249 | 115 ft | 5 kts | 227° |
| 2026-05-05 10:16 | 32.00572 | 34.87231 | 119 ft | 1 kts | 214° |
| 2026-05-05 10:16 | 32.00570 | 34.87230 | 119 ft | 0 kts | 213° |